Time;durP1;ratioP1;P1;durP2;ratioP2;P2;SDS_P1;SDS_P2;PMS_P1;PMS_P2;Temp;Humidity;BMP_temperature;BMP_pressure;BME280_temperature;BME280_humidity;BME280_pressure;Samples;Min_cycle;Max_cycle;Signal;HPM_P1;HPM_P2
2023/10/27 00:00:57;;;;;;;37.95;7.22;;;;;;;8.19;100.00;98694.44;7389951;19;20375;-71
2023/10/27 00:03:24;;;;;;;36.05;6.97;;;;;;;8.21;100.00;98696.88;7395778;19;20994;-71
2023/10/27 00:05:51;;;;;;;40.75;7.57;;;;;;;8.25;100.00;98695.44;7387024;19;20403;-72
2023/10/27 00:08:18;;;;;;;54.20;9.13;;;;;;;8.25;100.00;98690.97;7390377;19;20873;-72
2023/10/27 00:10:45;;;;;;;65.75;8.25;;;;;;;8.27;100.00;98696.06;7393944;19;20396;-72
2023/10/27 00:13:12;;;;;;;52.10;7.70;;;;;;;8.27;100.00;98685.50;7392976;19;20375;-71
2023/10/27 00:15:39;;;;;;;33.03;7.07;;;;;;;8.29;100.00;98686.91;7393583;19;20352;-71
2023/10/27 00:18:05;;;;;;;37.17;7.65;;;;;;;8.29;100.00;98694.81;7395154;19;20360;-71
2023/10/27 00:20:32;;;;;;;40.63;7.03;;;;;;;8.31;100.00;98686.69;7394029;19;20662;-71
2023/10/27 00:22:59;;;;;;;14.23;5.57;;;;;;;8.30;100.00;98682.41;7392204;19;20368;-72
2023/10/27 00:25:26;;;;;;;14.98;6.50;;;;;;;8.30;100.00;98679.78;7390517;19;20345;-71
2023/10/27 00:27:53;;;;;;;17.00;6.43;;;;;;;8.25;100.00;98679.59;7395470;19;20376;-71
2023/10/27 00:30:20;;;;;;;7.95;5.45;;;;;;;8.21;100.00;98666.00;7391305;19;20352;-71
2023/10/27 00:32:47;;;;;;;42.85;7.65;;;;;;;8.13;100.00;98671.50;7387934;19;20368;-72
2023/10/27 00:35:14;;;;;;;64.13;8.75;;;;;;;8.07;100.00;98670.50;7391589;19;20352;-71
2023/10/27 00:37:41;;;;;;;37.20;6.32;;;;;;;8.03;100.00;98664.00;7390658;19;20860;-72
2023/10/27 00:40:09;;;;;;;19.90;5.55;;;;;;;7.99;100.00;98662.84;7391071;19;20371;-71
2023/10/27 00:42:36;;;;;;;14.90;5.55;;;;;;;7.94;100.00;98667.91;7389307;19;20341;-72
2023/10/27 00:45:04;;;;;;;30.17;7.10;;;;;;;7.91;100.00;98663.06;7388846;19;20340;-71
2023/10/27 00:47:31;;;;;;;10.77;6.40;;;;;;;7.87;100.00;98662.66;7391344;19;20492;-71
2023/10/27 00:49:58;;;;;;;40.63;11.05;;;;;;;7.83;100.00;98661.44;7392528;19;20438;-71
2023/10/27 00:52:27;;;;;;;29.88;6.82;;;;;;;7.82;100.00;98654.56;7392446;19;20343;-71
2023/10/27 00:54:54;;;;;;;35.80;6.55;;;;;;;7.79;100.00;98662.06;7392929;19;20453;-71
2023/10/27 00:57:23;;;;;;;41.65;7.28;;;;;;;7.73;100.00;98655.78;7390167;19;20366;-72
2023/10/27 00:59:50;;;;;;;19.63;5.77;;;;;;;7.68;100.00;98659.03;7391060;19;20383;-72
2023/10/27 01:02:18;;;;;;;22.13;5.72;;;;;;;7.64;100.00;98655.19;7391349;19;20412;-71
2023/10/27 01:04:45;;;;;;;25.77;6.13;;;;;;;7.61;100.00;98658.25;7391745;19;20390;-71
2023/10/27 01:07:13;;;;;;;20.33;5.90;;;;;;;7.61;100.00;98658.25;7389467;19;20355;-72
2023/10/27 01:09:40;;;;;;;18.88;5.75;;;;;;;7.60;100.00;98656.59;7391886;19;20381;-71
2023/10/27 01:12:07;;;;;;;28.77;5.50;;;;;;;7.61;100.00;98652.97;7393529;19;20352;-72
2023/10/27 01:14:34;;;;;;;26.95;6.43;;;;;;;7.61;100.00;98657.41;7392246;19;20364;-72
2023/10/27 01:17:01;;;;;;;26.58;5.13;;;;;;;7.61;100.00;98652.13;7387627;19;20376;-72
2023/10/27 01:19:27;;;;;;;36.20;5.93;;;;;;;7.64;100.00;98652.53;7391766;19;20360;-71
2023/10/27 01:21:54;;;;;;;19.35;6.07;;;;;;;7.62;100.00;98651.94;7391756;19;20346;-71
2023/10/27 01:24:22;;;;;;;42.50;6.80;;;;;;;7.60;100.00;98646.06;7394696;19;20444;-71
2023/10/27 01:26:49;;;;;;;22.90;5.45;;;;;;;7.60;100.00;98651.34;7389227;19;20857;-71
2023/10/27 01:29:16;;;;;;;31.67;5.75;;;;;;;7.60;100.00;98653.97;7391534;19;20385;-71
2023/10/27 01:31:43;;;;;;;33.28;5.68;;;;;;;7.58;100.00;98663.91;7391356;19;20370;-71
2023/10/27 01:34:11;;;;;;;44.28;6.53;;;;;;;7.58;100.00;98663.91;7390352;19;20949;-71
2023/10/27 01:36:37;;;;;;;36.95;6.05;;;;;;;7.59;100.00;98662.91;7391238;19;20392;-72
2023/10/27 01:39:05;;;;;;;29.20;5.38;;;;;;;7.60;100.00;98661.88;7392621;19;20373;-71
2023/10/27 01:41:32;;;;;;;21.83;6.15;;;;;;;7.64;100.00;98663.09;7404756;19;20356;-71
2023/10/27 01:43:59;;;;;;;47.00;8.77;;;;;;;7.65;100.00;98656.81;7407773;19;20420;-72
2023/10/27 01:46:26;;;;;;;16.50;5.65;;;;;;;7.69;100.00;98659.84;7403917;19;20407;-71
2023/10/27 01:48:53;;;;;;;11.05;5.35;;;;;;;7.70;100.00;98650.91;7405456;19;20360;-71
2023/10/27 01:51:21;;;;;;;7.25;5.00;;;;;;;7.70;100.00;98641.16;7404241;19;20337;-71
2023/10/27 01:53:48;;;;;;;14.10;6.40;;;;;;;7.72;100.00;98633.84;7400432;19;20368;-71
2023/10/27 01:56:15;;;;;;;7.70;5.65;;;;;;;7.76;100.00;98640.34;7404064;19;20383;-71
2023/10/27 01:58:44;;;;;;;7.50;6.00;;;;;;;7.78;100.00;98632.22;7402212;19;20344;-71
2023/10/27 02:01:15;;;;;;;7.65;6.05;;;;;;;7.81;100.00;98631.00;7403046;19;20854;-71
2023/10/27 02:03:42;;;;;;;7.93;6.25;;;;;;;7.82;100.00;98637.88;7404827;19;20400;-71
2023/10/27 02:06:08;;;;;;;10.17;7.30;;;;;;;7.88;100.00;98634.41;7406143;19;20348;-72
2023/10/27 02:08:35;;;;;;;13.35;7.88;;;;;;;7.91;100.00;98636.66;7405614;19;20422;-71
2023/10/27 02:11:03;;;;;;;12.45;7.93;;;;;;;7.96;100.00;98642.09;7402453;19;20444;-71
2023/10/27 02:13:30;;;;;;;11.98;7.80;;;;;;;8.00;100.00;98638.03;7403343;19;20348;-71
2023/10/27 02:15:57;;;;;;;12.98;7.78;;;;;;;8.02;100.00;98637.84;7405292;19;20360;-71
2023/10/27 02:18:23;;;;;;;11.93;8.27;;;;;;;8.05;100.00;98640.84;7403395;19;20661;-71
2023/10/27 02:20:50;;;;;;;9.90;7.40;;;;;;;8.06;100.00;98642.47;7404905;19;20366;-71
2023/10/27 02:23:18;;;;;;;10.15;7.28;;;;;;;8.11;100.00;98652.41;7405288;19;20400;-71
2023/10/27 02:25:45;;;;;;;9.50;6.78;;;;;;;8.12;100.00;98649.56;7403568;19;20365;-71
2023/10/27 02:28:12;;;;;;;9.00;6.50;;;;;;;8.20;100.00;98645.06;7403469;19;20394;-71
2023/10/27 02:30:39;;;;;;;8.40;6.70;;;;;;;8.24;100.00;98654.19;7404908;19;20391;-72
2023/10/27 02:33:06;;;;;;;7.90;6.53;;;;;;;8.28;100.00;98650.13;7405401;19;20386;-71
2023/10/27 02:35:33;;;;;;;9.75;6.68;;;;;;;8.33;100.00;98650.28;7405372;19;20368;-71
2023/10/27 02:38:00;;;;;;;14.75;8.13;;;;;;;8.33;100.00;98645.00;7403403;19;20420;-71
2023/10/27 02:40:27;;;;;;;40.22;9.15;;;;;;;8.29;100.00;98657.03;7404078;19;20352;-71
2023/10/27 02:42:54;;;;;;;45.13;8.18;;;;;;;8.26;100.00;98658.25;7403915;19;20848;-71
2023/10/27 02:45:21;;;;;;;57.42;8.68;;;;;;;8.24;100.00;98652.34;7402068;19;20812;-71
2023/10/27 02:47:48;;;;;;;59.28;7.80;;;;;;;8.25;100.00;98646.06;7400784;19;20374;-72
2023/10/27 02:50:15;;;;;;;47.90;8.80;;;;;;;8.23;100.00;98647.31;7396289;19;20414;-72
2023/10/27 02:52:42;;;;;;;45.58;8.02;;;;;;;8.25;100.00;98645.25;7396873;19;20329;-72
2023/10/27 02:55:09;;;;;;;57.38;8.75;;;;;;;8.30;100.00;98651.53;7390613;19;20359;-72
2023/10/27 02:57:36;;;;;;;52.15;9.18;;;;;;;8.33;100.00;98645.00;7395605;19;20386;-71
2023/10/27 03:00:06;;;;;;;54.67;8.40;;;;;;;8.37;100.00;98640.91;7392462;19;20372;-72
2023/10/27 03:02:33;;;;;;;25.45;7.53;;;;;;;8.40;100.00;98634.41;7392014;19;20896;-71
2023/10/27 03:05:00;;;;;;;36.50;7.57;;;;;;;8.46;100.00;98644.16;7395552;19;20415;-71
2023/10/27 03:07:27;;;;;;;37.67;9.75;;;;;;;8.49;100.00;98633.97;7391111;19;20359;-72
2023/10/27 03:09:54;;;;;;;28.40;7.95;;;;;;;8.55;100.00;98637.63;7396716;19;20912;-72
2023/10/27 03:12:21;;;;;;;64.85;10.55;;;;;;;8.59;100.00;98638.00;7395506;19;20475;-72
2023/10/27 03:14:47;;;;;;;50.30;8.65;;;;;;;8.61;100.00;98623.56;7397043;19;20730;-71
2023/10/27 03:17:15;;;;;;;65.57;9.95;;;;;;;8.63;100.00;98623.31;7394713;19;20361;-72
2023/10/27 03:19:42;;;;;;;71.55;10.07;;;;;;;8.64;100.00;98619.66;7391799;19;20347;-72
2023/10/27 03:22:09;;;;;;;63.30;10.40;;;;;;;8.69;100.00;98625.13;7395234;19;20366;-71
2023/10/27 03:24:36;;;;;;;71.22;10.63;;;;;;;8.73;100.00;98626.31;7398523;19;20801;-72
2023/10/27 03:27:03;;;;;;;66.32;9.93;;;;;;;8.74;100.00;98615.53;7392828;19;20379;-72
2023/10/27 03:29:30;;;;;;;48.22;9.43;;;;;;;8.77;100.00;98624.84;7396736;19;20466;-72
2023/10/27 03:31:57;;;;;;;61.55;9.32;;;;;;;8.81;100.00;98631.34;7394163;19;20361;-71
2023/10/27 03:34:23;;;;;;;36.40;8.20;;;;;;;8.84;100.00;98623.00;7396420;19;20361;-71
2023/10/27 03:36:50;;;;;;;37.40;9.18;;;;;;;8.89;100.00;98627.63;7393184;19;20360;-72
2023/10/27 03:39:17;;;;;;;43.58;11.02;;;;;;;8.90;100.00;98619.47;7396398;19;20372;-72
2023/10/27 03:41:44;;;;;;;33.95;9.80;;;;;;;8.92;100.00;98622.72;7393663;19;20336;-71
2023/10/27 03:44:10;;;;;;;38.20;10.55;;;;;;;8.94;100.00;98620.66;7396636;19;20373;-71
2023/10/27 03:46:37;;;;;;;52.30;9.48;;;;;;;8.96;100.00;98623.91;7391831;19;20360;-71
2023/10/27 03:49:04;;;;;;;72.20;11.17;;;;;;;8.97;100.00;98630.81;7393312;19;20769;-72
2023/10/27 03:51:32;;;;;;;47.17;8.95;;;;;;;8.98;100.00;98627.13;7394842;19;20376;-72
2023/10/27 03:53:59;;;;;;;72.90;10.30;;;;;;;9.00;100.00;98623.50;7394995;19;20366;-72
2023/10/27 03:56:26;;;;;;;47.95;8.05;;;;;;;9.04;100.00;98624.69;7392228;19;20369;-72
2023/10/27 03:58:53;;;;;;;57.08;8.20;;;;;;;9.06;100.00;98622.63;7394248;19;20349;-72
2023/10/27 04:01:20;;;;;;;67.27;9.47;;;;;;;9.06;100.00;98617.34;7392967;19;20873;-72
2023/10/27 04:03:47;;;;;;;60.15;8.55;;;;;;;9.07;100.00;98619.75;7394484;19;20833;-72
2023/10/27 04:06:14;;;;;;;39.85;7.63;;;;;;;9.08;100.00;98620.56;7391725;19;20383;-72
2023/10/27 04:08:40;;;;;;;31.92;7.70;;;;;;;9.08;100.00;98620.56;7394843;19;20890;-72
2023/10/27 04:11:07;;;;;;;58.28;7.75;;;;;;;9.06;100.00;98617.34;7392968;19;20384;-72
2023/10/27 04:13:34;;;;;;;36.92;7.53;;;;;;;9.06;100.00;98617.34;7391031;19;20343;-72
2023/10/27 04:16:02;;;;;;;40.45;7.30;;;;;;;9.07;100.00;98624.22;7393107;19;21091;-72
2023/10/27 04:18:29;;;;;;;57.67;7.90;;;;;;;9.05;100.00;98621.78;7393756;19;20395;-72
2023/10/27 04:20:55;;;;;;;31.35;6.57;;;;;;;9.06;100.00;98618.13;7393708;19;20363;-71
2023/10/27 04:23:22;;;;;;;21.98;6.22;;;;;;;9.05;100.00;98607.75;7393646;19;20367;-72
2023/10/27 04:25:51;;;;;;;22.83;6.45;;;;;;;9.03;100.00;98602.72;7392662;19;20390;-72
2023/10/27 04:28:18;;;;;;;32.00;6.70;;;;;;;9.05;100.00;98610.41;7391601;19;20959;-71
2023/10/27 04:30:49;;;;;;;27.90;7.07;;;;;;;9.02;100.00;98608.22;7389819;19;20685;-72
2023/10/27 04:33:16;;;;;;;19.65;6.65;;;;;;;8.98;100.00;98605.97;7394729;19;20351;-71
2023/10/27 04:35:44;;;;;;;17.77;7.40;;;;;;;8.95;100.00;98600.34;7396089;19;20328;-72
2023/10/27 04:38:11;;;;;;;18.60;6.80;;;;;;;8.90;100.00;98597.50;7395437;19;21016;-71
2023/10/27 04:40:38;;;;;;;17.25;7.35;;;;;;;8.89;100.00;98598.56;7394726;19;20697;-71
2023/10/27 04:43:05;;;;;;;23.90;7.03;;;;;;;8.91;100.00;98592.00;7395564;19;20420;-71
2023/10/27 04:45:31;;;;;;;34.67;7.30;;;;;;;8.93;100.00;98595.25;7392565;19;20701;-71
2023/10/27 04:47:58;;;;;;;37.03;7.67;;;;;;;8.93;100.00;98595.25;7392506;19;20352;-71
2023/10/27 04:50:25;;;;;;;32.00;7.40;;;;;;;8.93;100.00;98586.53;7390984;19;20368;-72
2023/10/27 04:52:52;;;;;;;37.72;8.05;;;;;;;8.94;100.00;98594.22;7393396;19;20863;-71
2023/10/27 04:55:19;;;;;;;28.77;6.90;;;;;;;8.95;100.00;98595.03;7391633;19;20364;-72
2023/10/27 04:57:46;;;;;;;29.52;7.38;;;;;;;8.95;100.00;98595.84;7395596;19;20393;-71
2023/10/27 05:00:13;;;;;;;28.50;6.97;;;;;;;8.93;100.00;98592.63;7392394;19;20363;-72
2023/10/27 05:02:40;;;;;;;23.60;7.45;;;;;;;8.91;100.00;98599.16;7392463;19;20896;-71
2023/10/27 05:05:08;;;;;;;15.75;6.53;;;;;;;8.87;100.00;98597.94;7391424;19;20389;-71
2023/10/27 05:07:36;;;;;;;20.92;5.90;;;;;;;8.85;100.00;98595.53;7392074;19;20377;-71
2023/10/27 05:10:03;;;;;;;31.60;6.50;;;;;;;8.85;100.00;98595.53;7393162;19;20382;-72
2023/10/27 05:12:30;;;;;;;15.30;6.22;;;;;;;8.82;100.00;98595.97;7391723;19;20341;-72
2023/10/27 05:14:57;;;;;;;26.08;6.18;;;;;;;8.81;100.00;98594.31;7392501;19;20369;-72
2023/10/27 05:17:23;;;;;;;28.77;6.50;;;;;;;8.80;100.00;98595.38;7393088;19;20356;-71
2023/10/27 05:19:50;;;;;;;42.33;5.93;;;;;;;8.76;100.00;98591.53;7392818;19;20342;-71
2023/10/27 05:22:18;;;;;;;17.60;4.97;;;;;;;8.74;100.00;98583.00;7391117;19;20375;-72
2023/10/27 05:24:45;;;;;;;21.13;5.22;;;;;;;8.71;99.96;98594.00;7390453;19;20699;-72
2023/10/27 05:27:12;;;;;;;33.90;6.13;;;;;;;8.67;100.00;98587.50;7391512;19;20403;-72
2023/10/27 05:29:39;;;;;;;47.60;7.13;;;;;;;8.64;100.00;98587.94;7390320;19;20971;-72
2023/10/27 05:32:06;;;;;;;40.33;6.43;;;;;;;8.64;100.00;98577.38;7390425;19;20393;-72
2023/10/27 05:34:32;;;;;;;32.03;6.80;;;;;;;8.65;100.00;98592.19;7392314;19;20370;-72
2023/10/27 05:36:59;;;;;;;41.38;6.60;;;;;;;8.65;100.00;98593.03;7394437;19;20359;-72
2023/10/27 05:39:26;;;;;;;36.00;6.00;;;;;;;8.65;100.00;98594.84;7392083;19;20340;-72
2023/10/27 05:41:53;;;;;;;41.10;7.47;;;;;;;8.65;100.00;98600.13;7386829;19;20359;-72
2023/10/27 05:44:20;;;;;;;38.85;6.68;;;;;;;8.66;100.00;98602.56;7394216;19;20327;-71
2023/10/27 05:46:47;;;;;;;28.27;6.78;;;;;;;8.67;100.00;98603.38;7392866;19;20376;-72
2023/10/27 05:49:14;;;;;;;48.30;8.18;;;;;;;8.67;100.00;98611.31;7394754;19;20689;-72
2023/10/27 05:51:41;;;;;;;32.90;6.57;;;;;;;8.67;100.00;98595.44;7389969;19;20375;-72
2023/10/27 05:54:08;;;;;;;19.43;6.53;;;;;;;8.68;100.00;98597.06;7392865;19;20416;-71
2023/10/27 05:56:35;;;;;;;25.73;7.00;;;;;;;8.70;100.00;98592.38;7389741;19;20333;-72
2023/10/27 05:59:02;;;;;;;31.48;6.70;;;;;;;8.73;100.00;98597.22;7394626;19;20332;-72
2023/10/27 06:01:28;;;;;;;18.92;6.15;;;;;;;8.68;100.00;98589.94;7386923;19;20364;-71
2023/10/27 06:03:57;;;;;;;18.30;6.50;;;;;;;8.70;100.00;98587.91;7390352;19;20391;-72
2023/10/27 06:06:25;;;;;;;14.85;5.65;;;;;;;8.71;100.00;98594.00;7393433;19;20889;-72
2023/10/27 06:08:55;;;;;;;12.68;6.15;;;;;;;8.71;100.00;98597.47;7392288;19;20803;-72
2023/10/27 06:11:22;;;;;;;20.05;6.32;;;;;;;8.72;100.00;98598.28;7390611;19;20373;-72
2023/10/27 06:13:49;;;;;;;18.02;6.10;;;;;;;8.73;100.00;98599.88;7390807;19;20363;-72
2023/10/27 06:16:16;;;;;;;23.92;5.45;;;;;;;8.73;100.00;98599.88;7388622;19;20340;-72
2023/10/27 06:18:43;;;;;;;24.95;6.03;;;;;;;8.72;100.00;98598.28;7390916;19;20328;-72
2023/10/27 06:21:10;;;;;;;22.95;5.97;;;;;;;8.75;100.00;98600.47;7389443;19;20345;-72
2023/10/27 06:23:36;;;;;;;24.17;6.15;;;;;;;8.77;100.00;98593.94;7387235;19;20365;-72
2023/10/27 06:26:04;;;;;;;29.20;6.90;;;;;;;8.80;100.00;98590.09;7390866;19;20373;-72
2023/10/27 06:28:32;;;;;;;33.95;6.57;;;;;;;8.85;100.00;98600.00;7394136;19;20378;-72
2023/10/27 06:30:59;;;;;;;27.15;6.85;;;;;;;8.86;100.00;98598.97;7396404;19;20380;-73
2023/10/27 06:33:27;;;;;;;48.70;9.02;;;;;;;8.90;100.00;98598.31;7394320;19;20371;-72
2023/10/27 06:35:55;;;;;;;39.30;7.47;;;;;;;8.95;100.00;98601.13;7397299;19;20760;-72
2023/10/27 06:38:22;;;;;;;37.28;7.53;;;;;;;8.99;100.00;98596.25;7396117;19;20344;-72
2023/10/27 06:40:49;;;;;;;23.35;6.32;;;;;;;9.05;100.00;98605.13;7396653;19;20372;-72
2023/10/27 06:43:15;;;;;;;25.73;7.03;;;;;;;9.10;100.00;98603.47;7399147;19;20896;-72
2023/10/27 06:45:42;;;;;;;30.95;7.22;;;;;;;9.16;100.00;98609.72;7393363;19;20674;-72
2023/10/27 06:48:09;;;;;;;37.10;7.15;;;;;;;9.20;100.00;98616.19;7396452;19;20364;-72
2023/10/27 06:50:36;;;;;;;25.55;6.68;;;;;;;9.23;100.00;98612.31;7395816;19;20800;-72
2023/10/27 06:53:03;;;;;;;28.73;6.60;;;;;;;9.28;100.00;98615.09;7395912;19;20361;-72
2023/10/27 06:55:30;;;;;;;59.55;19.98;;;;;;;9.33;100.00;98621.38;7395993;19;20340;-75
2023/10/27 06:57:57;;;;;;;67.82;25.38;;;;;;;9.39;100.00;98623.16;7396813;19;20365;-74
2023/10/27 07:00:24;;;;;;;45.22;9.27;;;;;;;9.47;100.00;98618.59;7397906;19;20670;-75
2023/10/27 07:02:51;;;;;;;30.77;7.27;;;;;;;9.54;100.00;98624.63;7393529;19;20733;-74
2023/10/27 07:05:23;;;;;;;46.55;8.05;;;;;;;9.62;100.00;98624.34;7395619;19;20451;-75
2023/10/27 07:07:51;;;;;;;45.53;7.95;;;;;;;9.66;100.00;98620.22;7393667;19;20880;-76
2023/10/27 07:10:18;;;;;;;35.88;6.68;;;;;;;9.72;100.00;98622.00;7393057;19;20363;-75
2023/10/27 07:12:45;;;;;;;31.20;7.15;;;;;;;9.77;100.00;98614.19;7397217;19;20393;-75
2023/10/27 07:15:13;;;;;;;44.38;7.13;;;;;;;9.86;100.00;98621.84;7394269;19;20352;-75
2023/10/27 07:17:41;;;;;;;55.03;9.07;;;;;;;9.89;100.00;98621.41;7396830;19;20374;-75
2023/10/27 07:20:08;;;;;;;42.85;7.47;;;;;;;9.95;100.00;98615.22;7392222;19;20352;-75
2023/10/27 07:22:36;;;;;;;44.80;7.65;;;;;;;9.99;100.00;98617.22;7397455;19;20864;-75
2023/10/27 07:25:04;;;;;;;44.58;8.52;;;;;;;10.05;100.00;98620.81;7393740;19;20848;-75
2023/10/27 07:27:31;;;;;;;35.78;7.88;;;;;;;10.11;100.00;98625.19;7393616;19;20407;-75
2023/10/27 07:29:58;;;;;;;38.72;8.10;;;;;;;10.18;100.00;98623.31;7397782;19;20364;-75
2023/10/27 07:32:25;;;;;;;57.97;10.70;;;;;;;10.23;100.00;98624.47;7393333;19;20420;-76
2023/10/27 07:34:52;;;;;;;39.23;9.00;;;;;;;10.27;100.00;98617.69;7392762;19;20387;-75
2023/10/27 07:37:20;;;;;;;34.30;9.23;;;;;;;10.33;100.00;98622.94;7393007;19;20378;-76
2023/10/27 07:39:47;;;;;;;36.67;10.13;;;;;;;10.43;100.00;98621.56;7393209;19;20393;-76
2023/10/27 07:42:14;;;;;;;41.05;11.27;;;;;;;10.48;100.00;98619.88;7397066;19;20369;-75
2023/10/27 07:44:41;;;;;;;23.73;9.77;;;;;;;10.56;100.00;98614.25;7391168;19;20364;-75
2023/10/27 07:47:08;;;;;;;23.35;10.23;;;;;;;10.60;100.00;98610.13;7393287;19;20365;-75
2023/10/27 07:49:35;;;;;;;28.57;10.77;;;;;;;10.67;100.00;98611.84;7390385;19;20383;-75
2023/10/27 07:52:03;;;;;;;24.70;11.32;;;;;;;10.72;100.00;98609.34;7392784;19;20365;-75
2023/10/27 07:54:31;;;;;;;22.80;11.77;;;;;;;10.79;100.00;98615.34;7396877;19;20341;-75
2023/10/27 07:56:59;;;;;;;16.30;11.35;;;;;;;10.83;100.00;98616.50;7393891;19;20372;-75
2023/10/27 07:59:29;;;;;;;19.80;11.30;;;;;;;10.88;100.00;98613.16;7393942;19;20438;-75
2023/10/27 08:01:59;;;;;;;19.02;11.80;;;;;;;10.93;100.00;98614.13;7389501;19;20363;-75
2023/10/27 08:04:28;;;;;;;19.85;11.73;;;;;;;11.01;100.00;98616.44;7393320;19;20382;-75
2023/10/27 08:06:55;;;;;;;21.15;12.25;;;;;;;11.07;100.00;98613.88;7394162;19;20770;-76
2023/10/27 08:09:21;;;;;;;35.10;21.75;;;;;;;11.12;100.00;98614.03;7390247;19;20889;-76
2023/10/27 08:11:49;;;;;;;18.73;12.15;;;;;;;11.17;100.00;98619.44;7392733;19;20366;-75
2023/10/27 08:14:16;;;;;;;17.77;12.30;;;;;;;11.21;100.00;98617.94;7392441;19;20412;-75
2023/10/27 08:16:45;;;;;;;17.30;12.27;;;;;;;11.26;100.00;98620.72;7395935;19;20710;-75
2023/10/27 08:19:12;;;;;;;18.60;12.10;;;;;;;11.30;100.00;98618.41;7393868;19;20364;-75
2023/10/27 08:21:40;;;;;;;17.25;11.77;;;;;;;11.35;100.00;98629.97;7392973;19;20369;-75
2023/10/27 08:24:08;;;;;;;20.30;13.50;;;;;;;11.42;100.00;98622.69;7394299;19;20428;-75
2023/10/27 08:26:35;;;;;;;22.00;14.82;;;;;;;11.52;100.00;98627.44;7390961;19;20357;-76
2023/10/27 08:29:02;;;;;;;32.63;23.10;;;;;;;11.57;100.00;98630.19;7394744;19;20336;-79
2023/10/27 08:31:29;;;;;;;17.08;12.63;;;;;;;11.63;100.00;98636.44;7390867;19;20365;-79
2023/10/27 08:34:00;;;;;;;170.25;110.15;;;;;;;11.68;100.00;98638.38;7390707;19;20357;-79
2023/10/27 08:36:27;;;;;;;19.02;12.63;;;;;;;11.75;100.00;98636.41;7393046;19;20348;-79
2023/10/27 08:38:55;;;;;;;15.70;11.60;;;;;;;11.80;100.00;98637.31;7394579;19;20390;-79
2023/10/27 08:41:25;;;;;;;16.85;12.13;;;;;;;11.86;100.00;98640.06;7397168;19;20428;-80
2023/10/27 08:43:52;;;;;;;17.05;12.52;;;;;;;11.88;100.00;98638.84;7393918;19;20352;-79
2023/10/27 08:46:20;;;;;;;21.58;14.25;;;;;;;11.92;100.00;98639.16;7392767;19;20432;-78
2023/10/27 08:48:48;;;;;;;16.77;12.80;;;;;;;11.98;100.00;98632.94;7392561;19;20414;-79
2023/10/27 08:51:16;;;;;;;17.43;12.77;;;;;;;12.02;100.00;98639.38;7394384;19;20364;-79
2023/10/27 08:53:44;;;;;;;18.25;13.30;;;;;;;12.04;99.70;98640.75;7390123;19;20670;-79
2023/10/27 08:56:12;;;;;;;16.95;12.75;;;;;;;12.07;99.72;98641.34;7395381;19;20360;-79
2023/10/27 08:58:47;;;;;;;16.73;12.43;;;;;;;12.10;99.62;98646.19;7395505;19;20420;-79
2023/10/27 09:01:14;;;;;;;14.98;11.75;;;;;;;12.15;99.51;98646.28;7396600;19;20860;-79
2023/10/27 09:03:41;;;;;;;17.20;12.80;;;;;;;12.16;99.41;98639.94;7410545;19;20414;-80
2023/10/27 09:06:08;;;;;;;16.23;12.35;;;;;;;12.18;99.03;98638.66;7421352;19;20368;-80
2023/10/27 09:08:35;;;;;;;17.05;13.43;;;;;;;12.21;99.08;98640.84;7415674;19;20352;-79
2023/10/27 09:11:05;;;;;;;16.05;13.18;;;;;;;12.21;98.53;98640.84;7395044;19;20357;-80
2023/10/27 09:13:39;;;;;;;16.25;11.95;;;;;;;12.22;98.80;98634.50;7393717;19;20370;-80
2023/10/27 09:16:06;;;;;;;15.70;12.15;;;;;;;12.26;98.57;98634.00;7394355;19;20365;-80
2023/10/27 09:18:35;;;;;;;15.15;11.73;;;;;;;12.27;98.56;98636.44;7395312;19;20356;-80
2023/10/27 09:21:03;;;;;;;15.10;12.50;;;;;;;12.30;98.30;98637.81;7393963;19;20474;-80
2023/10/27 09:23:43;;;;;;;14.85;12.27;;;;;;;12.31;98.13;98634.13;7391880;19;20369;-80
2023/10/27 09:26:10;;;;;;;26.88;20.45;;;;;;;12.30;97.99;98635.16;7389297;19;20381;-79
2023/10/27 09:28:37;;;;;;;15.80;13.15;;;;;;;12.27;97.54;98635.63;7391161;19;20372;-79
2023/10/27 09:31:04;;;;;;;15.75;12.55;;;;;;;12.26;97.67;98636.66;7392910;19;20361;-79
2023/10/27 09:33:31;;;;;;;29.48;20.70;;;;;;;12.24;97.49;98631.59;7392200;19;20341;-79
2023/10/27 09:36:02;;;;;;;15.95;12.90;;;;;;;12.22;97.55;98639.81;7392094;19;20377;-79
2023/10/27 09:38:29;;;;;;;16.33;12.52;;;;;;;12.23;97.45;98630.78;7391876;19;20992;-79
2023/10/27 09:41:00;;;;;;;16.42;12.27;;;;;;;12.23;97.82;98635.28;7392088;19;20433;-79
2023/10/27 09:43:33;;;;;;;15.82;12.48;;;;;;;12.22;97.74;98639.81;7393354;19;20356;-79
2023/10/27 09:46:06;;;;;;;12.93;10.45;;;;;;;12.17;96.92;98631.72;7389350;19;20387;-78
2023/10/27 09:48:36;;;;;;;11.82;10.07;;;;;;;12.17;96.88;98630.91;7390108;19;20368;-79
2023/10/27 09:51:16;;;;;;;52.42;42.20;;;;;;;12.18;97.19;98628.03;7391870;19;20365;-78
2023/10/27 09:53:47;;;;;;;57.42;41.63;;;;;;;12.17;96.57;98625.59;7387181;19;20441;-78
2023/10/27 09:56:17;;;;;;;103.97;66.82;;;;;;;12.17;96.43;98626.41;7390460;19;20349;-79
2023/10/27 09:58:45;;;;;;;15.70;13.85;;;;;;;12.15;95.88;98628.47;7393873;19;20686;-79
2023/10/27 10:01:12;;;;;;;19.73;14.57;;;;;;;12.15;95.86;98635.66;7394695;19;20359;-79
2023/10/27 10:03:42;;;;;;;15.57;13.35;;;;;;;12.10;95.66;98627.59;7398401;19;20893;-79
2023/10/27 10:06:19;;;;;;;14.60;13.07;;;;;;;12.07;95.61;98630.69;7397683;19;20868;-79
2023/10/27 10:09:05;;;;;;;16.45;14.30;;;;;;;12.09;96.23;98633.94;7397249;19;20357;-79
2023/10/27 10:11:55;;;;;;;17.38;15.38;;;;;;;12.17;95.84;98637.03;7400419;19;20906;-79
2023/10/27 10:14:38;;;;;;;18.23;16.27;;;;;;;12.22;95.70;98639.81;7395064;19;20365;-79
2023/10/27 10:17:05;;;;;;;17.92;15.32;;;;;;;12.24;95.37;98632.41;7400631;19;20353;-80
2023/10/27 10:19:50;;;;;;;18.33;16.33;;;;;;;12.28;95.31;98627.41;7393369;19;20682;-78
2023/10/27 10:22:44;;;;;;;57.90;41.30;;;;;;;12.32;95.25;98627.75;7396616;19;20360;-79
2023/10/27 10:25:14;;;;;;;19.03;16.90;;;;;;;12.41;95.18;98623.66;7393026;19;20721;-79
2023/10/27 10:28:09;;;;;;;17.80;15.90;;;;;;;12.53;95.05;98628.94;7399034;19;20386;-79
2023/10/27 10:30:43;;;;;;;19.00;16.23;;;;;;;12.65;94.91;98635.81;7397364;19;20373;-79
2023/10/27 10:33:14;;;;;;;20.35;16.08;;;;;;;12.73;94.11;98634.63;7398845;19;20812;-79
2023/10/27 10:35:42;;;;;;;18.00;16.10;;;;;;;12.84;94.08;98630.28;7394971;19;20341;-79
2023/10/27 10:38:21;;;;;;;19.50;16.08;;;;;;;12.95;93.73;98624.06;7399906;19;20362;-80
2023/10/27 10:40:59;;;;;;;18.50;16.58;;;;;;;13.02;93.34;98624.72;7394790;19;20864;-79
2023/10/27 10:43:29;;;;;;;19.40;16.52;;;;;;;13.15;93.70;98625.44;7397368;19;20367;-79
2023/10/27 10:45:59;;;;;;;21.45;18.08;;;;;;;13.24;93.13;98624.00;7400590;19;20868;-80
2023/10/27 10:48:28;;;;;;;20.98;18.65;;;;;;;13.33;92.89;98633.22;7395905;19;20349;-80
2023/10/27 10:51:00;;;;;;;21.40;18.52;;;;;;;13.39;92.28;98629.59;7397462;19;20341;-79
2023/10/27 10:53:27;;;;;;;19.85;17.73;;;;;;;13.44;91.72;98629.66;7395671;19;20360;-79
2023/10/27 10:55:59;;;;;;;19.88;17.75;;;;;;;13.44;91.04;98629.66;7395434;19;20368;-80
2023/10/27 10:58:28;;;;;;;20.92;18.25;;;;;;;13.44;90.59;98624.31;7396744;19;20364;-79
2023/10/27 11:00:56;;;;;;;20.87;18.53;;;;;;;13.44;90.64;98624.31;7397328;19;20395;-79
2023/10/27 11:03:28;;;;;;;19.27;16.63;;;;;;;13.39;90.42;98623.47;7398992;19;20686;-79
2023/10/27 11:05:59;;;;;;;21.65;18.00;;;;;;;13.36;90.28;98627.41;7396584;19;20715;-79
2023/10/27 11:08:34;;;;;;;20.50;18.27;;;;;;;13.35;90.58;98625.00;7395961;19;20704;-79
2023/10/27 11:11:13;;;;;;;20.17;17.17;;;;;;;13.31;90.08;98618.53;7395551;19;20353;-79
2023/10/27 11:13:52;;;;;;;19.48;17.38;;;;;;;13.29;90.43;98629.44;7393613;19;20425;-80
2023/10/27 11:16:22;;;;;;;19.63;17.15;;;;;;;13.23;90.08;98623.19;7395801;19;20360;-80
2023/10/27 11:18:51;;;;;;;19.08;17.00;;;;;;;13.18;90.25;98627.66;7395863;19;20392;-80
2023/10/27 11:21:22;;;;;;;21.83;17.73;;;;;;;13.13;90.40;98623.03;7396796;19;20416;-80
2023/10/27 11:23:50;;;;;;;21.52;17.13;;;;;;;13.12;90.97;98632.06;7395609;19;20361;-81
2023/10/27 11:26:19;;;;;;;23.05;16.30;;;;;;;13.09;90.80;98627.25;7397550;19;20344;-81